Gifu Airport

Current Flights

Departures
Number Departure To Airline
Arrivals
Number Arrival From Airline
Info
Name: Gifu Airport
Identifier:  QGU/RJNG
Local Time:  20. May 18:25
City
Current Weather
 18 C (Humidity: 93%)
  10kt (18km/h / 11mph) from 80°
  Few clouds at 1,500 feet (457 meter)
  Broken clouds at 2,500 feet (762 meter)
  Few clouds at 2,500 feet (762 meter)
  Broken clouds at 4,000 feet (1,219 meter)
  3km (1 mi.)
 Mist
 METAR RJNG 201744Z 08010KT 3000 SHRA BR FEW015 BKN025 FEW025TCU BKN040 18/17 Q1001 RMK 2CU015 6CU025 2TCU025 7SC040 A2958 TCU W-NW

Current Delays

Departures
N/A
Arrivals
N/A